Canaan, Missouri
Current Conditions -  °F | °C
As of 1:53 AM on Tuesday 21 Oct 2014 (Local Time) from KVIH Reporting Station
Clear Clear  
Wind Chill: 44°   Ceiling: Unl
Heat Index: 46°   Visibility: 10mi
Dew Point: 41°   Wind: 5mph
Humidity: 83%   Direction: 210°SSW
Pressure: 30.06"   Gusts: NA
Location:  38.3239°N, 91.6268°W
Report Text: KVIH 210653Z AUTO 21004KT 10SM CLR 08/05 A3006 RMK AO2 SLP173 T00780050
Loading
Personal Weather Stations






























Interactive Weather Map
Tropical Storm Tracking
New forecast layout! Learn more

10-Day Weather Forecast

Advertisements
Track Severe Weather on mobile